sensor_id;sensor_type;location;lat;lon;timestamp;P1;durP1;ratioP1;P2;durP2;ratioP2
26774;SDS011;14362;51.902;7.626;2024-02-26T00:02:50;6.57;;;4.35;;
26774;SDS011;14362;51.902;7.626;2024-02-26T00:06:52;5.13;;;4.05;;
26774;SDS011;14362;51.902;7.626;2024-02-26T00:10:57;4.30;;;3.25;;
26774;SDS011;14362;51.902;7.626;2024-02-26T00:14:58;4.47;;;3.88;;
26774;SDS011;14362;51.902;7.626;2024-02-26T00:19:00;3.40;;;2.97;;
26774;SDS011;14362;51.902;7.626;2024-02-26T00:23:02;4.60;;;3.40;;
26774;SDS011;14362;51.902;7.626;2024-02-26T00:27:04;5.00;;;3.50;;
26774;SDS011;14362;51.902;7.626;2024-02-26T00:31:06;3.97;;;2.97;;
26774;SDS011;14362;51.902;7.626;2024-02-26T00:35:07;3.60;;;2.75;;
26774;SDS011;14362;51.902;7.626;2024-02-26T00:39:11;5.50;;;2.90;;
26774;SDS011;14362;51.902;7.626;2024-02-26T00:43:14;3.50;;;2.70;;
26774;SDS011;14362;51.902;7.626;2024-02-26T00:47:15;3.58;;;3.00;;
26774;SDS011;14362;51.902;7.626;2024-02-26T00:51:16;3.05;;;2.40;;
26774;SDS011;14362;51.902;7.626;2024-02-26T00:55:18;3.45;;;2.70;;
26774;SDS011;14362;51.902;7.626;2024-02-26T00:59:21;3.55;;;2.60;;
26774;SDS011;14362;51.902;7.626;2024-02-26T01:03:22;4.25;;;2.53;;
26774;SDS011;14362;51.902;7.626;2024-02-26T01:07:24;5.07;;;2.90;;
26774;SDS011;14362;51.902;7.626;2024-02-26T01:11:25;4.20;;;2.50;;
26774;SDS011;14362;51.902;7.626;2024-02-26T01:15:28;2.35;;;2.10;;
26774;SDS011;14362;51.902;7.626;2024-02-26T01:19:29;2.30;;;2.08;;
26774;SDS011;14362;51.902;7.626;2024-02-26T01:23:31;3.33;;;2.17;;
26774;SDS011;14362;51.902;7.626;2024-02-26T01:27:32;3.72;;;2.30;;
26774;SDS011;14362;51.902;7.626;2024-02-26T01:31:35;3.33;;;2.38;;
26774;SDS011;14362;51.902;7.626;2024-02-26T01:35:36;3.90;;;2.10;;
26774;SDS011;14362;51.902;7.626;2024-02-26T01:39:38;3.00;;;2.40;;
26774;SDS011;14362;51.902;7.626;2024-02-26T01:43:41;4.10;;;2.92;;
26774;SDS011;14362;51.902;7.626;2024-02-26T01:47:44;4.07;;;2.75;;
26774;SDS011;14362;51.902;7.626;2024-02-26T01:51:46;3.30;;;2.65;;
26774;SDS011;14362;51.902;7.626;2024-02-26T01:55:47;3.40;;;2.65;;
26774;SDS011;14362;51.902;7.626;2024-02-26T01:59:49;2.67;;;2.45;;
26774;SDS011;14362;51.902;7.626;2024-02-26T02:03:51;4.50;;;2.63;;
26774;SDS011;14362;51.902;7.626;2024-02-26T02:07:54;3.63;;;2.80;;
26774;SDS011;14362;51.902;7.626;2024-02-26T02:11:56;7.15;;;3.55;;
26774;SDS011;14362;51.902;7.626;2024-02-26T02:15:58;5.43;;;3.15;;
26774;SDS011;14362;51.902;7.626;2024-02-26T02:20:01;5.68;;;2.85;;
26774;SDS011;14362;51.902;7.626;2024-02-26T02:24:05;5.60;;;2.92;;
26774;SDS011;14362;51.902;7.626;2024-02-26T02:28:06;3.15;;;2.42;;
26774;SDS011;14362;51.902;7.626;2024-02-26T02:32:08;3.42;;;2.50;;
26774;SDS011;14362;51.902;7.626;2024-02-26T02:36:09;3.03;;;2.60;;
26774;SDS011;14362;51.902;7.626;2024-02-26T02:40:13;4.57;;;2.90;;
26774;SDS011;14362;51.902;7.626;2024-02-26T02:44:14;2.45;;;2.22;;
26774;SDS011;14362;51.902;7.626;2024-02-26T02:48:16;2.85;;;2.30;;
26774;SDS011;14362;51.902;7.626;2024-02-26T02:52:17;2.67;;;2.35;;
26774;SDS011;14362;51.902;7.626;2024-02-26T02:56:20;2.80;;;2.42;;
26774;SDS011;14362;51.902;7.626;2024-02-26T03:00:21;2.70;;;2.20;;
26774;SDS011;14362;51.902;7.626;2024-02-26T03:04:23;2.75;;;2.17;;
26774;SDS011;14362;51.902;7.626;2024-02-26T03:08:25;3.45;;;2.20;;
26774;SDS011;14362;51.902;7.626;2024-02-26T03:12:27;3.17;;;2.22;;
26774;SDS011;14362;51.902;7.626;2024-02-26T03:16:30;2.97;;;2.00;;
26774;SDS011;14362;51.902;7.626;2024-02-26T03:20:32;2.40;;;1.90;;
26774;SDS011;14362;51.902;7.626;2024-02-26T03:24:33;3.00;;;2.17;;
26774;SDS011;14362;51.902;7.626;2024-02-26T03:28:36;4.07;;;2.05;;
26774;SDS011;14362;51.902;7.626;2024-02-26T03:32:37;3.40;;;1.92;;
26774;SDS011;14362;51.902;7.626;2024-02-26T03:36:39;1.83;;;1.60;;
26774;SDS011;14362;51.902;7.626;2024-02-26T03:40:40;2.92;;;1.98;;
26774;SDS011;14362;51.902;7.626;2024-02-26T03:44:43;2.78;;;1.80;;
26774;SDS011;14362;51.902;7.626;2024-02-26T03:48:44;3.05;;;2.08;;
26774;SDS011;14362;51.902;7.626;2024-02-26T03:52:45;2.50;;;1.75;;
26774;SDS011;14362;51.902;7.626;2024-02-26T03:56:47;3.42;;;1.75;;
26774;SDS011;14362;51.902;7.626;2024-02-26T04:00:50;3.13;;;1.92;;
26774;SDS011;14362;51.902;7.626;2024-02-26T04:04:51;3.60;;;1.73;;
26774;SDS011;14362;51.902;7.626;2024-02-26T04:08:52;2.38;;;1.75;;
26774;SDS011;14362;51.902;7.626;2024-02-26T04:12:54;1.95;;;1.60;;
26774;SDS011;14362;51.902;7.626;2024-02-26T04:16:57;2.47;;;1.80;;
26774;SDS011;14362;51.902;7.626;2024-02-26T04:20:58;2.42;;;1.80;;
26774;SDS011;14362;51.902;7.626;2024-02-26T04:24:59;7.82;;;2.13;;
26774;SDS011;14362;51.902;7.626;2024-02-26T04:29:01;4.78;;;2.53;;
26774;SDS011;14362;51.902;7.626;2024-02-26T04:33:04;2.55;;;1.98;;
26774;SDS011;14362;51.902;7.626;2024-02-26T04:37:05;4.15;;;2.38;;
26774;SDS011;14362;51.902;7.626;2024-02-26T04:41:07;3.35;;;2.25;;
26774;SDS011;14362;51.902;7.626;2024-02-26T04:45:08;3.60;;;2.47;;
26774;SDS011;14362;51.902;7.626;2024-02-26T04:49:11;2.92;;;2.33;;
26774;SDS011;14362;51.902;7.626;2024-02-26T04:53:12;3.00;;;2.10;;
26774;SDS011;14362;51.902;7.626;2024-02-26T04:57:14;3.25;;;2.35;;
26774;SDS011;14362;51.902;7.626;2024-02-26T05:01:18;2.50;;;2.25;;
26774;SDS011;14362;51.902;7.626;2024-02-26T05:05:21;3.58;;;2.70;;
26774;SDS011;14362;51.902;7.626;2024-02-26T05:09:22;2.88;;;1.88;;
26774;SDS011;14362;51.902;7.626;2024-02-26T05:13:24;3.83;;;2.22;;
26774;SDS011;14362;51.902;7.626;2024-02-26T05:17:25;2.78;;;1.95;;
26774;SDS011;14362;51.902;7.626;2024-02-26T05:21:28;3.58;;;2.20;;
26774;SDS011;14362;51.902;7.626;2024-02-26T05:25:29;2.65;;;1.77;;
26774;SDS011;14362;51.902;7.626;2024-02-26T05:29:31;2.95;;;2.10;;
26774;SDS011;14362;51.902;7.626;2024-02-26T05:33:32;1.95;;;1.73;;
26774;SDS011;14362;51.902;7.626;2024-02-26T05:37:35;2.53;;;1.92;;
26774;SDS011;14362;51.902;7.626;2024-02-26T05:41:36;1.95;;;1.58;;
26774;SDS011;14362;51.902;7.626;2024-02-26T05:45:38;2.55;;;1.67;;
26774;SDS011;14362;51.902;7.626;2024-02-26T05:49:39;2.85;;;1.88;;
26774;SDS011;14362;51.902;7.626;2024-02-26T05:53:42;1.77;;;1.40;;
26774;SDS011;14362;51.902;7.626;2024-02-26T05:57:43;2.42;;;1.50;;
26774;SDS011;14362;51.902;7.626;2024-02-26T06:01:45;1.48;;;1.33;;
26774;SDS011;14362;51.902;7.626;2024-02-26T06:05:47;2.97;;;1.63;;
26774;SDS011;14362;51.902;7.626;2024-02-26T06:09:49;1.88;;;1.30;;
26774;SDS011;14362;51.902;7.626;2024-02-26T06:13:51;2.13;;;1.50;;
26774;SDS011;14362;51.902;7.626;2024-02-26T06:17:52;2.53;;;1.50;;
26774;SDS011;14362;51.902;7.626;2024-02-26T06:21:54;1.77;;;1.30;;
26774;SDS011;14362;51.902;7.626;2024-02-26T06:25:57;1.40;;;1.30;;
26774;SDS011;14362;51.902;7.626;2024-02-26T06:29:58;1.27;;;1.00;;
26774;SDS011;14362;51.902;7.626;2024-02-26T06:33:59;1.42;;;1.17;;
26774;SDS011;14362;51.902;7.626;2024-02-26T06:38:01;1.38;;;1.15;;
26774;SDS011;14362;51.902;7.626;2024-02-26T06:42:04;2.00;;;1.08;;
26774;SDS011;14362;51.902;7.626;2024-02-26T06:46:05;2.97;;;1.45;;
26774;SDS011;14362;51.902;7.626;2024-02-26T06:50:07;1.88;;;1.60;;
26774;SDS011;14362;51.902;7.626;2024-02-26T06:54:09;2.08;;;1.33;;
26774;SDS011;14362;51.902;7.626;2024-02-26T06:58:12;1.95;;;1.38;;
26774;SDS011;14362;51.902;7.626;2024-02-26T07:02:14;4.32;;;1.40;;
26774;SDS011;14362;51.902;7.626;2024-02-26T07:06:17;1.98;;;1.50;;
26774;SDS011;14362;51.902;7.626;2024-02-26T07:10:18;2.20;;;1.20;;
26774;SDS011;14362;51.902;7.626;2024-02-26T07:14:21;1.27;;;1.10;;
26774;SDS011;14362;51.902;7.626;2024-02-26T07:18:24;1.77;;;1.23;;
26774;SDS011;14362;51.902;7.626;2024-02-26T07:22:26;1.35;;;1.20;;
26774;SDS011;14362;51.902;7.626;2024-02-26T07:26:27;3.00;;;1.50;;
26774;SDS011;14362;51.902;7.626;2024-02-26T07:30:32;2.58;;;1.80;;
26774;SDS011;14362;51.902;7.626;2024-02-26T07:34:33;3.42;;;1.20;;
26774;SDS011;14362;51.902;7.626;2024-02-26T07:38:35;2.67;;;1.70;;
26774;SDS011;14362;51.902;7.626;2024-02-26T07:42:36;1.58;;;1.35;;
26774;SDS011;14362;51.902;7.626;2024-02-26T07:46:40;3.03;;;1.50;;
26774;SDS011;14362;51.902;7.626;2024-02-26T07:50:42;2.15;;;1.40;;
26774;SDS011;14362;51.902;7.626;2024-02-26T07:54:43;1.90;;;1.52;;
26774;SDS011;14362;51.902;7.626;2024-02-26T07:58:44;1.83;;;1.38;;
26774;SDS011;14362;51.902;7.626;2024-02-26T08:02:47;2.85;;;1.60;;
26774;SDS011;14362;51.902;7.626;2024-02-26T08:06:49;2.78;;;1.65;;
26774;SDS011;14362;51.902;7.626;2024-02-26T08:10:50;1.52;;;1.35;;
26774;SDS011;14362;51.902;7.626;2024-02-26T08:14:51;2.70;;;1.42;;
26774;SDS011;14362;51.902;7.626;2024-02-26T08:18:54;2.35;;;1.58;;
26774;SDS011;14362;51.902;7.626;2024-02-26T08:22:56;2.60;;;1.83;;
26774;SDS011;14362;51.902;7.626;2024-02-26T08:26:58;3.28;;;1.70;;
26774;SDS011;14362;51.902;7.626;2024-02-26T08:30:59;2.03;;;1.63;;
26774;SDS011;14362;51.902;7.626;2024-02-26T08:35:02;3.13;;;2.13;;
26774;SDS011;14362;51.902;7.626;2024-02-26T08:39:04;3.05;;;2.30;;
26774;SDS011;14362;51.902;7.626;2024-02-26T08:43:05;2.15;;;1.80;;
26774;SDS011;14362;51.902;7.626;2024-02-26T08:47:07;2.45;;;2.25;;
26774;SDS011;14362;51.902;7.626;2024-02-26T08:51:09;4.45;;;2.25;;
26774;SDS011;14362;51.902;7.626;2024-02-26T08:55:11;3.40;;;1.90;;
26774;SDS011;14362;51.902;7.626;2024-02-26T08:59:13;4.13;;;2.60;;
26774;SDS011;14362;51.902;7.626;2024-02-26T09:03:16;2.72;;;2.15;;
26774;SDS011;14362;51.902;7.626;2024-02-26T09:07:19;3.13;;;2.25;;
26774;SDS011;14362;51.902;7.626;2024-02-26T09:11:20;5.20;;;2.50;;
26774;SDS011;14362;51.902;7.626;2024-02-26T09:15:22;2.72;;;2.42;;
26774;SDS011;14362;51.902;7.626;2024-02-26T09:19:23;3.67;;;2.40;;
26774;SDS011;14362;51.902;7.626;2024-02-26T09:23:27;4.13;;;2.67;;
26774;SDS011;14362;51.902;7.626;2024-02-26T09:27:29;4.68;;;3.10;;
26774;SDS011;14362;51.902;7.626;2024-02-26T09:31:31;4.03;;;2.80;;
26774;SDS011;14362;51.902;7.626;2024-02-26T09:35:34;6.57;;;3.97;;
26774;SDS011;14362;51.902;7.626;2024-02-26T09:39:36;7.35;;;4.15;;
26774;SDS011;14362;51.902;7.626;2024-02-26T09:43:38;8.00;;;4.50;;
26774;SDS011;14362;51.902;7.626;2024-02-26T09:47:43;8.95;;;4.53;;
26774;SDS011;14362;51.902;7.626;2024-02-26T09:51:46;5.63;;;4.03;;
26774;SDS011;14362;51.902;7.626;2024-02-26T09:55:51;7.03;;;4.38;;
26774;SDS011;14362;51.902;7.626;2024-02-26T09:59:53;5.80;;;4.35;;
26774;SDS011;14362;51.902;7.626;2024-02-26T10:04:00;5.47;;;4.30;;
26774;SDS011;14362;51.902;7.626;2024-02-26T10:08:01;10.75;;;5.07;;
26774;SDS011;14362;51.902;7.626;2024-02-26T10:12:07;6.45;;;4.93;;
26774;SDS011;14362;51.902;7.626;2024-02-26T10:16:11;7.45;;;5.35;;
26774;SDS011;14362;51.902;7.626;2024-02-26T10:20:12;6.72;;;4.50;;
26774;SDS011;14362;51.902;7.626;2024-02-26T10:24:16;7.90;;;5.40;;
26774;SDS011;14362;51.902;7.626;2024-02-26T10:28:19;6.95;;;4.80;;
26774;SDS011;14362;51.902;7.626;2024-02-26T10:32:20;5.50;;;4.50;;
26774;SDS011;14362;51.902;7.626;2024-02-26T10:36:22;5.93;;;4.95;;
26774;SDS011;14362;51.902;7.626;2024-02-26T10:40:23;6.65;;;4.65;;
26774;SDS011;14362;51.902;7.626;2024-02-26T10:44:26;6.57;;;4.65;;
26774;SDS011;14362;51.902;7.626;2024-02-26T10:48:28;6.35;;;4.47;;
26774;SDS011;14362;51.902;7.626;2024-02-26T10:52:30;6.28;;;4.50;;
26774;SDS011;14362;51.902;7.626;2024-02-26T10:56:34;6.63;;;4.82;;
26774;SDS011;14362;51.902;7.626;2024-02-26T11:00:39;6.50;;;5.13;;
26774;SDS011;14362;51.902;7.626;2024-02-26T11:04:41;7.30;;;4.32;;
26774;SDS011;14362;51.902;7.626;2024-02-26T11:08:43;6.25;;;4.20;;
26774;SDS011;14362;51.902;7.626;2024-02-26T11:12:48;5.53;;;4.03;;
26774;SDS011;14362;51.902;7.626;2024-02-26T11:16:52;5.65;;;4.05;;
26774;SDS011;14362;51.902;7.626;2024-02-26T11:20:55;5.15;;;4.25;;
26774;SDS011;14362;51.902;7.626;2024-02-26T11:24:57;4.88;;;4.38;;
26774;SDS011;14362;51.902;7.626;2024-02-26T11:29:01;6.68;;;4.72;;
26774;SDS011;14362;51.902;7.626;2024-02-26T11:33:05;7.03;;;3.97;;
26774;SDS011;14362;51.902;7.626;2024-02-26T11:37:10;6.50;;;4.15;;
26774;SDS011;14362;51.902;7.626;2024-02-26T11:41:12;4.60;;;3.20;;
26774;SDS011;14362;51.902;7.626;2024-02-26T11:49:51;4.03;;;3.42;;
26774;SDS011;14362;51.902;7.626;2024-02-26T11:53:52;5.47;;;3.08;;
26774;SDS011;14362;51.902;7.626;2024-02-26T11:57:54;4.18;;;2.90;;
26774;SDS011;14362;51.902;7.626;2024-02-26T12:01:56;4.47;;;3.00;;
26774;SDS011;14362;51.902;7.626;2024-02-26T12:05:59;2.83;;;2.47;;
26774;SDS011;14362;51.902;7.626;2024-02-26T12:10:14;4.45;;;2.75;;
26774;SDS011;14362;51.902;7.626;2024-02-26T12:14:17;3.85;;;3.17;;
26774;SDS011;14362;51.902;7.626;2024-02-26T12:18:19;3.00;;;2.70;;
26774;SDS011;14362;51.902;7.626;2024-02-26T12:22:22;3.17;;;2.60;;
26774;SDS011;14362;51.902;7.626;2024-02-26T12:26:25;3.25;;;2.50;;
26774;SDS011;14362;51.902;7.626;2024-02-26T12:30:27;4.15;;;2.92;;
26774;SDS011;14362;51.902;7.626;2024-02-26T12:34:29;4.35;;;2.80;;
26774;SDS011;14362;51.902;7.626;2024-02-26T12:38:33;3.28;;;2.00;;
26774;SDS011;14362;51.902;7.626;2024-02-26T12:42:37;2.75;;;2.25;;
26774;SDS011;14362;51.902;7.626;2024-02-26T12:46:40;4.13;;;2.95;;
26774;SDS011;14362;51.902;7.626;2024-02-26T12:50:44;3.33;;;2.53;;
26774;SDS011;14362;51.902;7.626;2024-02-26T12:54:48;7.93;;;2.50;;
26774;SDS011;14362;51.902;7.626;2024-02-26T12:58:50;5.43;;;2.33;;
26774;SDS011;14362;51.902;7.626;2024-02-26T13:02:52;3.60;;;2.35;;
26774;SDS011;14362;51.902;7.626;2024-02-26T13:06:55;3.17;;;2.72;;
26774;SDS011;14362;51.902;7.626;2024-02-26T13:11:02;3.90;;;2.75;;
26774;SDS011;14362;51.902;7.626;2024-02-26T13:15:04;2.50;;;1.92;;
26774;SDS011;14362;51.902;7.626;2024-02-26T13:19:09;3.80;;;2.83;;
26774;SDS011;14362;51.902;7.626;2024-02-26T13:23:11;4.65;;;2.65;;
26774;SDS011;14362;51.902;7.626;2024-02-26T13:27:21;3.13;;;2.53;;
26774;SDS011;14362;51.902;7.626;2024-02-26T13:31:24;3.25;;;2.85;;
26774;SDS011;14362;51.902;7.626;2024-02-26T13:35:26;6.07;;;3.50;;
26774;SDS011;14362;51.902;7.626;2024-02-26T13:39:27;3.40;;;2.33;;
26774;SDS011;14362;51.902;7.626;2024-02-26T13:43:31;3.47;;;2.50;;
26774;SDS011;14362;51.902;7.626;2024-02-26T13:47:33;3.05;;;2.42;;
26774;SDS011;14362;51.902;7.626;2024-02-26T13:51:35;3.92;;;2.85;;
26774;SDS011;14362;51.902;7.626;2024-02-26T13:55:37;5.57;;;2.45;;
26774;SDS011;14362;51.902;7.626;2024-02-26T13:59:39;3.33;;;2.58;;
26774;SDS011;14362;51.902;7.626;2024-02-26T14:03:42;2.65;;;2.42;;
26774;SDS011;14362;51.902;7.626;2024-02-26T14:07:44;3.65;;;2.72;;
26774;SDS011;14362;51.902;7.626;2024-02-26T14:11:45;3.13;;;2.15;;
26774;SDS011;14362;51.902;7.626;2024-02-26T14:15:48;6.10;;;2.78;;
26774;SDS011;14362;51.902;7.626;2024-02-26T14:19:49;3.03;;;2.55;;
26774;SDS011;14362;51.902;7.626;2024-02-26T14:23:51;4.65;;;2.42;;
26774;SDS011;14362;51.902;7.626;2024-02-26T14:27:52;2.35;;;2.08;;
26774;SDS011;14362;51.902;7.626;2024-02-26T14:31:55;3.92;;;2.67;;
26774;SDS011;14362;51.902;7.626;2024-02-26T14:35:56;4.05;;;2.40;;
26774;SDS011;14362;51.902;7.626;2024-02-26T14:39:58;4.45;;;2.97;;
26774;SDS011;14362;51.902;7.626;2024-02-26T14:43:59;4.72;;;3.25;;
26774;SDS011;14362;51.902;7.626;2024-02-26T14:48:02;4.60;;;2.60;;
26774;SDS011;14362;51.902;7.626;2024-02-26T14:52:04;4.43;;;2.92;;
26774;SDS011;14362;51.902;7.626;2024-02-26T14:56:06;4.60;;;2.80;;
26774;SDS011;14362;51.902;7.626;2024-02-26T15:00:09;3.70;;;2.90;;
26774;SDS011;14362;51.902;7.626;2024-02-26T15:04:13;3.80;;;2.67;;
26774;SDS011;14362;51.902;7.626;2024-02-26T15:08:14;4.25;;;2.83;;
26774;SDS011;14362;51.902;7.626;2024-02-26T15:12:16;5.70;;;2.85;;
26774;SDS011;14362;51.902;7.626;2024-02-26T15:16:20;5.70;;;3.28;;
26774;SDS011;14362;51.902;7.626;2024-02-26T15:20:23;4.57;;;3.15;;
26774;SDS011;14362;51.902;7.626;2024-02-26T15:24:24;4.32;;;3.22;;
26774;SDS011;14362;51.902;7.626;2024-02-26T15:28:27;4.70;;;3.38;;
26774;SDS011;14362;51.902;7.626;2024-02-26T15:32:29;3.90;;;3.50;;
26774;SDS011;14362;51.902;7.626;2024-02-26T15:36:31;4.10;;;3.20;;
26774;SDS011;14362;51.902;7.626;2024-02-26T15:40:33;4.10;;;3.28;;
26774;SDS011;14362;51.902;7.626;2024-02-26T15:44:34;5.55;;;4.00;;
26774;SDS011;14362;51.902;7.626;2024-02-26T15:48:38;6.82;;;4.20;;
26774;SDS011;14362;51.902;7.626;2024-02-26T15:52:40;4.95;;;3.85;;
26774;SDS011;14362;51.902;7.626;2024-02-26T15:56:42;5.55;;;3.88;;
26774;SDS011;14362;51.902;7.626;2024-02-26T16:00:43;5.57;;;3.78;;
26774;SDS011;14362;51.902;7.626;2024-02-26T16:04:45;7.65;;;4.60;;
26774;SDS011;14362;51.902;7.626;2024-02-26T16:08:47;8.18;;;4.75;;
26774;SDS011;14362;51.902;7.626;2024-02-26T16:12:51;5.18;;;3.83;;
26774;SDS011;14362;51.902;7.626;2024-02-26T16:16:56;4.20;;;3.50;;
26774;SDS011;14362;51.902;7.626;2024-02-26T16:21:02;6.22;;;3.97;;
26774;SDS011;14362;51.902;7.626;2024-02-26T16:25:06;5.63;;;3.67;;
26774;SDS011;14362;51.902;7.626;2024-02-26T16:29:07;7.40;;;3.75;;
26774;SDS011;14362;51.902;7.626;2024-02-26T16:33:09;4.95;;;3.92;;
26774;SDS011;14362;51.902;7.626;2024-02-26T16:37:12;7.60;;;3.85;;
26774;SDS011;14362;51.902;7.626;2024-02-26T16:41:16;9.70;;;3.90;;
26774;SDS011;14362;51.902;7.626;2024-02-26T16:45:17;5.07;;;3.92;;
26774;SDS011;14362;51.902;7.626;2024-02-26T16:49:18;6.57;;;4.50;;
26774;SDS011;14362;51.902;7.626;2024-02-26T16:53:20;6.10;;;4.80;;
26774;SDS011;14362;51.902;7.626;2024-02-26T16:57:23;6.70;;;5.13;;
26774;SDS011;14362;51.902;7.626;2024-02-26T17:01:24;7.75;;;5.63;;
26774;SDS011;14362;51.902;7.626;2024-02-26T17:05:26;12.25;;;6.78;;
26774;SDS011;14362;51.902;7.626;2024-02-26T17:09:27;6.78;;;5.43;;
26774;SDS011;14362;51.902;7.626;2024-02-26T17:13:30;7.65;;;6.03;;
26774;SDS011;14362;51.902;7.626;2024-02-26T17:17:33;8.07;;;5.93;;
26774;SDS011;14362;51.902;7.626;2024-02-26T17:21:34;8.60;;;6.68;;
26774;SDS011;14362;51.902;7.626;2024-02-26T17:25:36;9.40;;;7.03;;
26774;SDS011;14362;51.902;7.626;2024-02-26T17:29:39;11.30;;;8.10;;
26774;SDS011;14362;51.902;7.626;2024-02-26T17:33:40;12.15;;;8.25;;
26774;SDS011;14362;51.902;7.626;2024-02-26T17:37:42;13.73;;;7.85;;
26774;SDS011;14362;51.902;7.626;2024-02-26T17:41:43;12.98;;;8.23;;
26774;SDS011;14362;51.902;7.626;2024-02-26T17:45:46;12.23;;;9.05;;
26774;SDS011;14362;51.902;7.626;2024-02-26T17:49:48;12.30;;;9.38;;
26774;SDS011;14362;51.902;7.626;2024-02-26T17:53:49;13.98;;;8.98;;
26774;SDS011;14362;51.902;7.626;2024-02-26T17:57:50;12.55;;;7.97;;
26774;SDS011;14362;51.902;7.626;2024-02-26T18:01:54;12.00;;;8.52;;
26774;SDS011;14362;51.902;7.626;2024-02-26T18:05:55;13.75;;;9.55;;
26774;SDS011;14362;51.902;7.626;2024-02-26T18:09:56;13.68;;;8.45;;
26774;SDS011;14362;51.902;7.626;2024-02-26T18:13:58;10.75;;;8.32;;
26774;SDS011;14362;51.902;7.626;2024-02-26T18:18:01;13.10;;;8.90;;
26774;SDS011;14362;51.902;7.626;2024-02-26T18:22:02;15.52;;;9.23;;
26774;SDS011;14362;51.902;7.626;2024-02-26T18:26:04;15.50;;;9.75;;
26774;SDS011;14362;51.902;7.626;2024-02-26T18:30:06;14.27;;;9.15;;
26774;SDS011;14362;51.902;7.626;2024-02-26T18:34:10;14.93;;;9.48;;
26774;SDS011;14362;51.902;7.626;2024-02-26T18:38:12;12.80;;;8.80;;
26774;SDS011;14362;51.902;7.626;2024-02-26T18:42:14;13.07;;;9.05;;
26774;SDS011;14362;51.902;7.626;2024-02-26T18:46:18;16.27;;;10.05;;
26774;SDS011;14362;51.902;7.626;2024-02-26T18:50:21;12.85;;;9.10;;
26774;SDS011;14362;51.902;7.626;2024-02-26T18:54:22;13.90;;;9.93;;
26774;SDS011;14362;51.902;7.626;2024-02-26T18:58:24;15.45;;;10.45;;
26774;SDS011;14362;51.902;7.626;2024-02-26T19:02:25;12.52;;;9.90;;
26774;SDS011;14362;51.902;7.626;2024-02-26T19:06:29;16.17;;;9.98;;
26774;SDS011;14362;51.902;7.626;2024-02-26T19:10:32;15.57;;;9.97;;
26774;SDS011;14362;51.902;7.626;2024-02-26T19:14:34;14.32;;;10.52;;
26774;SDS011;14362;51.902;7.626;2024-02-26T19:18:35;19.80;;;10.63;;
26774;SDS011;14362;51.902;7.626;2024-02-26T19:22:38;17.83;;;11.38;;
26774;SDS011;14362;51.902;7.626;2024-02-26T19:26:42;15.82;;;10.43;;
26774;SDS011;14362;51.902;7.626;2024-02-26T19:30:43;17.17;;;10.50;;
26774;SDS011;14362;51.902;7.626;2024-02-26T19:34:45;14.55;;;10.70;;
26774;SDS011;14362;51.902;7.626;2024-02-26T19:38:48;21.33;;;11.80;;
26774;SDS011;14362;51.902;7.626;2024-02-26T19:42:49;16.42;;;11.90;;
26774;SDS011;14362;51.902;7.626;2024-02-26T19:46:50;18.65;;;11.77;;
26774;SDS011;14362;51.902;7.626;2024-02-26T19:50:52;18.63;;;12.15;;
26774;SDS011;14362;51.902;7.626;2024-02-26T19:54:56;19.17;;;12.38;;
26774;SDS011;14362;51.902;7.626;2024-02-26T19:58:58;17.17;;;12.18;;
26774;SDS011;14362;51.902;7.626;2024-02-26T20:02:59;18.08;;;13.15;;
26774;SDS011;14362;51.902;7.626;2024-02-26T20:07:00;18.92;;;12.98;;
26774;SDS011;14362;51.902;7.626;2024-02-26T20:11:04;20.38;;;14.05;;
26774;SDS011;14362;51.902;7.626;2024-02-26T20:15:06;21.85;;;14.68;;
26774;SDS011;14362;51.902;7.626;2024-02-26T20:19:07;20.52;;;14.15;;
26774;SDS011;14362;51.902;7.626;2024-02-26T20:23:11;21.95;;;15.35;;
26774;SDS011;14362;51.902;7.626;2024-02-26T20:27:14;21.35;;;15.20;;
26774;SDS011;14362;51.902;7.626;2024-02-26T20:31:15;25.13;;;16.83;;
26774;SDS011;14362;51.902;7.626;2024-02-26T20:35:17;23.00;;;15.38;;
26774;SDS011;14362;51.902;7.626;2024-02-26T20:39:18;25.38;;;17.55;;
26774;SDS011;14362;51.902;7.626;2024-02-26T20:43:21;23.88;;;16.67;;
26774;SDS011;14362;51.902;7.626;2024-02-26T20:47:22;27.33;;;18.52;;
26774;SDS011;14362;51.902;7.626;2024-02-26T20:51:24;26.25;;;18.23;;
26774;SDS011;14362;51.902;7.626;2024-02-26T20:55:25;26.33;;;18.10;;
26774;SDS011;14362;51.902;7.626;2024-02-26T20:59:28;27.45;;;17.55;;
26774;SDS011;14362;51.902;7.626;2024-02-26T21:03:32;27.98;;;17.95;;
26774;SDS011;14362;51.902;7.626;2024-02-26T21:07:33;28.45;;;18.05;;
26774;SDS011;14362;51.902;7.626;2024-02-26T21:11:34;27.95;;;18.33;;
26774;SDS011;14362;51.902;7.626;2024-02-26T21:15:37;26.65;;;17.50;;
26774;SDS011;14362;51.902;7.626;2024-02-26T21:19:40;27.07;;;18.27;;
26774;SDS011;14362;51.902;7.626;2024-02-26T21:23:41;25.90;;;17.67;;
26774;SDS011;14362;51.902;7.626;2024-02-26T21:27:43;27.25;;;18.70;;
26774;SDS011;14362;51.902;7.626;2024-02-26T21:31:46;27.02;;;18.15;;
26774;SDS011;14362;51.902;7.626;2024-02-26T21:35:48;29.00;;;18.08;;
26774;SDS011;14362;51.902;7.626;2024-02-26T21:39:49;28.90;;;18.17;;
26774;SDS011;14362;51.902;7.626;2024-02-26T21:43:51;26.00;;;18.70;;
26774;SDS011;14362;51.902;7.626;2024-02-26T21:47:55;25.30;;;17.85;;
26774;SDS011;14362;51.902;7.626;2024-02-26T21:51:56;26.73;;;18.23;;
26774;SDS011;14362;51.902;7.626;2024-02-26T21:55:58;27.08;;;18.13;;
26774;SDS011;14362;51.902;7.626;2024-02-26T21:59:59;26.13;;;17.58;;
26774;SDS011;14362;51.902;7.626;2024-02-26T22:04:02;27.23;;;17.25;;
26774;SDS011;14362;51.902;7.626;2024-02-26T22:08:04;28.20;;;17.63;;
26774;SDS011;14362;51.902;7.626;2024-02-26T22:12:06;27.00;;;17.05;;
26774;SDS011;14362;51.902;7.626;2024-02-26T22:16:08;29.27;;;17.70;;
26774;SDS011;14362;51.902;7.626;2024-02-26T22:20:11;25.90;;;17.25;;
26774;SDS011;14362;51.902;7.626;2024-02-26T22:24:12;25.13;;;15.85;;
26774;SDS011;14362;51.902;7.626;2024-02-26T22:28:14;25.13;;;15.80;;
26774;SDS011;14362;51.902;7.626;2024-02-26T22:32:15;28.15;;;15.80;;
26774;SDS011;14362;51.902;7.626;2024-02-26T22:36:18;26.23;;;16.60;;
26774;SDS011;14362;51.902;7.626;2024-02-26T22:40:20;25.00;;;14.70;;
26774;SDS011;14362;51.902;7.626;2024-02-26T22:44:22;26.25;;;16.30;;
26774;SDS011;14362;51.902;7.626;2024-02-26T22:48:23;24.42;;;16.33;;
26774;SDS011;14362;51.902;7.626;2024-02-26T22:52:26;26.20;;;16.33;;
26774;SDS011;14362;51.902;7.626;2024-02-26T22:56:27;23.00;;;14.90;;
26774;SDS011;14362;51.902;7.626;2024-02-26T23:00:29;25.63;;;15.93;;
26774;SDS011;14362;51.902;7.626;2024-02-26T23:04:32;25.10;;;15.25;;
26774;SDS011;14362;51.902;7.626;2024-02-26T23:08:35;24.98;;;15.50;;
26774;SDS011;14362;51.902;7.626;2024-02-26T23:12:37;22.90;;;15.00;;
26774;SDS011;14362;51.902;7.626;2024-02-26T23:16:38;24.67;;;15.63;;
26774;SDS011;14362;51.902;7.626;2024-02-26T23:20:40;24.63;;;15.57;;
26774;SDS011;14362;51.902;7.626;2024-02-26T23:24:42;23.98;;;15.23;;
26774;SDS011;14362;51.902;7.626;2024-02-26T23:28:44;27.38;;;15.85;;
26774;SDS011;14362;51.902;7.626;2024-02-26T23:32:45;22.52;;;14.88;;
26774;SDS011;14362;51.902;7.626;2024-02-26T23:36:47;23.35;;;14.75;;
26774;SDS011;14362;51.902;7.626;2024-02-26T23:40:49;24.58;;;14.75;;
26774;SDS011;14362;51.902;7.626;2024-02-26T23:44:51;22.92;;;14.90;;
26774;SDS011;14362;51.902;7.626;2024-02-26T23:48:53;23.75;;;15.38;;
26774;SDS011;14362;51.902;7.626;2024-02-26T23:52:55;23.33;;;14.82;;
26774;SDS011;14362;51.902;7.626;2024-02-26T23:56:58;23.33;;;15.20;;
